Time,TemperatureF,DewpointF,PressureIn,WindDirection,WindDirectionDegrees,WindSpeedMPH,WindSpeedGustMPH,Humidity,HourlyPrecipIn,Conditions,Clouds,dailyrainin,SoftwareType,DateUTC
2013-04-11 00:02:00,45.0,42.0,30.37,NNW,330,5.0,9.0,90,0.00,,,0.23,,2013-04-11 07:02:00,
2013-04-11 00:11:00,45.0,42.0,30.37,NNW,330,5.0,9.0,90,0.00,,,0.23,,2013-04-11 07:11:00,
2013-04-11 00:21:00,45.0,42.0,30.37,North,0,1.0,9.0,90,0.00,,,0.23,,2013-04-11 07:21:00,
2013-04-11 00:31:00,42.0,40.0,30.37,NNW,334,10.0,13.0,91,0.00,,,0.23,,2013-04-11 07:31:00,
2013-04-11 00:42:00,42.0,40.0,30.37,NNW,341,6.0,17.0,91,0.00,,,0.23,,2013-04-11 07:42:00,
2013-04-11 00:52:00,42.0,40.0,30.37,NNW,341,6.0,17.0,91,0.00,,,0.23,,2013-04-11 07:52:00,
2013-04-11 01:02:00,42.0,40.0,30.37,North,0,0.0,2.0,91,0.00,,,0.23,,2013-04-11 08:02:00,
2013-04-11 01:11:00,42.0,40.0,30.37,North,0,0.0,2.0,91,0.00,,,0.23,,2013-04-11 08:11:00,
2013-04-11 01:21:00,42.0,40.0,30.38,North,0,0.0,0.0,91,0.00,,,0.23,,2013-04-11 08:21:00,
2013-04-11 01:32:00,42.0,40.0,30.38,North,0,0.0,0.0,92,0.00,,,0.23,,2013-04-11 08:32:00,
2013-04-11 01:41:00,42.0,40.0,30.38,North,0,0.0,0.0,92,0.00,,,0.23,,2013-04-11 08:41:00,
2013-04-11 01:51:00,42.0,40.0,30.39,North,0,0.0,0.0,92,0.00,,,0.23,,2013-04-11 08:51:00,
2013-04-11 02:01:00,41.0,39.0,30.39,North,0,0.0,5.0,93,0.00,,,0.23,,2013-04-11 09:01:00,
2013-04-11 02:11:00,42.0,40.0,30.38,North,0,0.0,0.0,93,0.00,,,0.23,,2013-04-11 09:11:00,
2013-04-11 02:22:00,42.0,40.0,30.38,North,0,0.0,0.0,93,0.00,,,0.23,,2013-04-11 09:22:00,
2013-04-11 02:32:00,42.0,40.0,30.38,North,0,0.0,0.0,93,0.00,,,0.23,,2013-04-11 09:32:00,
2013-04-11 02:42:00,42.0,40.0,30.38,North,0,0.0,0.0,93,0.00,,,0.23,,2013-04-11 09:42:00,
2013-04-11 02:52:00,42.0,40.0,30.38,NNW,347,4.0,8.0,94,0.00,,,0.23,,2013-04-11 09:52:00,
2013-04-11 03:02:00,42.0,40.0,30.37,North,0,0.0,5.0,94,0.01,,,0.23,,2013-04-11 10:02:00,
2013-04-11 03:12:00,42.0,40.0,30.37,North,0,0.0,0.0,94,0.01,,,0.23,,2013-04-11 10:12:00,
2013-04-11 03:22:00,42.0,40.0,30.37,North,0,0.0,0.0,94,0.01,,,0.23,,2013-04-11 10:22:00,
2013-04-11 03:32:00,42.0,40.0,30.37,North,0,0.0,0.0,94,0.01,,,0.24,,2013-04-11 10:32:00,
2013-04-11 03:41:00,42.0,40.0,30.37,North,0,0.0,0.0,94,0.01,,,0.24,,2013-04-11 10:41:00,
2013-04-11 03:52:00,42.0,40.0,30.37,North,0,0.0,0.0,94,0.01,,,0.24,,2013-04-11 10:52:00,
2013-04-11 04:02:00,42.0,40.0,30.37,North,0,0.0,0.0,94,0.01,,,0.24,,2013-04-11 11:02:00,
2013-04-11 04:11:00,42.0,40.0,30.37,North,0,0.0,4.0,94,0.00,,,0.24,,2013-04-11 11:11:00,
2013-04-11 04:22:00,42.0,40.0,30.37,North,0,0.0,5.0,94,0.00,,,0.24,,2013-04-11 11:22:00,
2013-04-11 04:32:00,42.0,40.0,30.37,North,0,0.0,0.0,94,0.00,,,0.23,,2013-04-11 11:32:00,
2013-04-11 04:42:00,42.0,40.0,30.36,North,0,0.0,0.0,94,0.00,,,0.23,,2013-04-11 11:42:00,
2013-04-11 04:52:00,42.0,40.0,30.36,North,0,0.0,0.0,94,0.00,,,0.23,,2013-04-11 11:52:00,
2013-04-11 05:02:00,42.0,40.0,30.36,North,0,0.0,0.0,94,0.00,,,0.23,,2013-04-11 12:02:00,
2013-04-11 05:12:00,42.0,41.0,30.36,North,0,0.0,0.0,95,0.00,,,0.23,,2013-04-11 12:12:00,
2013-04-11 05:22:00,42.0,41.0,30.36,North,0,0.0,0.0,95,0.00,,,0.23,,2013-04-11 12:22:00,
2013-04-11 05:32:00,42.0,41.0,30.35,North,0,0.0,4.0,95,0.00,,,0.22,,2013-04-11 12:32:00,
2013-04-11 05:42:00,42.0,41.0,30.35,North,0,0.0,4.0,95,0.00,,,0.22,,2013-04-11 12:42:00,
2013-04-11 05:52:00,42.0,41.0,30.34,North,0,0.0,0.0,95,0.00,,,0.22,,2013-04-11 12:52:00,
2013-04-11 06:02:00,41.0,40.0,30.35,ESE,120,4.0,5.0,95,0.00,,,0.22,,2013-04-11 13:02:00,
2013-04-11 06:12:00,41.0,40.0,30.35,North,0,1.0,5.0,95,0.00,,,0.22,,2013-04-11 13:12:00,
2013-04-11 06:22:00,41.0,40.0,30.35,North,0,1.0,5.0,95,0.00,,,0.22,,2013-04-11 13:22:00,
2013-04-11 06:32:00,41.0,40.0,30.35,North,0,0.0,5.0,95,0.00,,,0.22,,2013-04-11 13:32:00,
2013-04-11 06:42:00,41.0,40.0,30.35,North,0,0.0,5.0,95,0.00,,,0.22,,2013-04-11 13:42:00,
2013-04-11 06:52:00,40.0,39.0,30.35,ESE,105,3.0,6.0,95,0.00,,,0.22,,2013-04-11 13:52:00,
2013-04-11 07:02:00,40.0,39.0,30.36,ESE,103,3.0,5.0,96,0.00,,,0.22,,2013-04-11 14:02:00,
2013-04-11 07:12:00,41.0,40.0,30.36,SE,137,0.0,5.0,96,0.00,,,0.22,,2013-04-11 14:12:00,
2013-04-11 07:21:00,41.0,40.0,30.36,SE,137,0.0,5.0,96,0.00,,,0.22,,2013-04-11 14:21:00,
2013-04-11 07:32:00,41.0,40.0,30.37,North,0,0.0,3.0,96,0.00,,,0.20,,2013-04-11 14:32:00,
2013-04-11 07:41:00,41.0,40.0,30.37,North,0,0.0,3.0,96,0.00,,,0.20,,2013-04-11 14:41:00,
2013-04-11 07:52:00,41.0,40.0,30.36,North,0,1.0,4.0,96,0.00,,,0.20,,2013-04-11 14:52:00,
2013-04-11 08:02:00,42.0,41.0,30.37,North,0,0.0,5.0,96,0.00,,,0.20,,2013-04-11 15:02:00,
2013-04-11 08:11:00,42.0,41.0,30.37,ESE,119,1.0,5.0,96,0.00,,,0.20,,2013-04-11 15:11:00,
2013-04-11 08:21:00,42.0,41.0,30.37,ESE,119,1.0,5.0,96,0.00,,,0.20,,2013-04-11 15:21:00,
2013-04-11 08:32:00,42.0,41.0,30.37,North,0,0.0,5.0,96,0.00,,,0.16,,2013-04-11 15:32:00,
2013-04-11 08:42:00,42.0,41.0,30.37,North,0,0.0,0.0,96,0.00,,,0.16,,2013-04-11 15:42:00,
2013-04-11 08:52:00,42.0,41.0,30.37,North,0,0.0,0.0,96,0.00,,,0.16,,2013-04-11 15:52:00,
2013-04-11 09:02:00,44.0,43.0,30.37,North,0,0.0,0.0,96,0.00,,,0.16,,2013-04-11 16:02:00,
2013-04-11 09:12:00,44.0,43.0,30.37,North,0,0.0,0.0,96,0.00,,,0.16,,2013-04-11 16:12:00,
2013-04-11 09:22:00,45.0,44.0,30.37,North,0,0.0,0.0,95,0.00,,,0.16,,2013-04-11 16:22:00,
2013-04-11 09:32:00,46.0,44.0,30.37,WNW,294,0.0,6.0,93,0.00,,,0.13,,2013-04-11 16:32:00,
2013-04-11 09:41:00,47.0,45.0,30.37,NW,319,3.0,6.0,92,0.00,,,0.13,,2013-04-11 16:41:00,
2013-04-11 09:52:00,47.0,45.0,30.37,NW,319,3.0,6.0,92,0.00,,,0.13,,2013-04-11 16:52:00,
2013-04-11 10:02:00,47.0,44.0,30.36,NW,317,4.0,11.0,88,0.00,,,0.13,,2013-04-11 17:02:00,
2013-04-11 10:11:00,47.0,43.0,30.36,NNW,331,5.0,11.0,87,0.00,,,0.13,,2013-04-11 17:11:00,
2013-04-11 10:22:00,47.0,43.0,30.36,NNW,331,5.0,11.0,87,0.00,,,0.13,,2013-04-11 17:22:00,
2013-04-11 10:32:00,47.0,43.0,30.36,NW,322,8.0,11.0,87,0.00,,,0.03,,2013-04-11 17:32:00,
2013-04-11 10:42:00,47.0,43.0,30.36,NW,322,8.0,11.0,87,0.00,,,0.03,,2013-04-11 17:42:00,
2013-04-11 10:52:00,47.0,43.0,30.36,NW,319,5.0,11.0,87,0.00,,,0.03,,2013-04-11 17:52:00,
2013-04-11 11:02:00,46.0,42.0,30.37,NNW,329,8.0,11.0,86,0.00,,,0.03,,2013-04-11 18:02:00,
2013-04-11 11:11:00,46.0,42.0,30.37,NNW,329,8.0,11.0,86,0.00,,,0.03,,2013-04-11 18:11:00,
2013-04-11 11:22:00,47.0,43.0,30.37,NNW,344,6.0,11.0,86,0.00,,,0.03,,2013-04-11 18:22:00,
2013-04-11 11:32:00,51.0,46.0,30.37,NW,313,10.0,14.0,82,0.00,,,0.01,,2013-04-11 18:32:00,
2013-04-11 11:42:00,51.0,46.0,30.37,NW,313,10.0,14.0,82,0.00,,,0.01,,2013-04-11 18:42:00,
2013-04-11 11:52:00,49.0,43.0,30.37,NNW,345,8.0,14.0,80,0.00,,,0.01,,2013-04-11 18:52:00,
2013-04-11 12:02:00,50.0,45.0,30.37,North,357,8.0,12.0,83,0.00,,,0.01,,2013-04-11 19:02:00,
2013-04-11 12:13:00,50.0,45.0,30.37,North,357,8.0,12.0,83,0.00,,,0.01,,2013-04-11 19:13:00,
2013-04-11 12:21:00,51.0,46.0,30.37,NNW,343,7.0,12.0,83,0.00,,,0.01,,2013-04-11 19:21:00,
2013-04-11 12:32:00,54.0,48.0,30.37,WNW,296,7.0,13.0,79,0.00,,,0.01,,2013-04-11 19:32:00,
2013-04-11 12:42:00,54.0,48.0,30.37,WNW,296,7.0,13.0,79,0.00,,,0.01,,2013-04-11 19:42:00,
2013-04-11 12:52:00,53.0,46.0,30.36,NNW,341,7.0,13.0,77,0.00,,,0.01,,2013-04-11 19:52:00,
2013-04-11 13:02:00,54.0,47.0,30.36,NW,306,8.0,11.0,78,0.00,,,0.01,,2013-04-11 20:02:00,
2013-04-11 13:11:00,54.0,47.0,30.36,NNW,343,9.0,14.0,78,0.00,,,0.01,,2013-04-11 20:11:00,
2013-04-11 13:21:00,54.0,47.0,30.36,NNW,343,9.0,14.0,78,0.00,,,0.01,,2013-04-11 20:21:00,
2013-04-11 13:33:00,54.0,46.0,30.35,NNW,345,9.0,15.0,75,0.00,,,0.01,,2013-04-11 20:33:00,
2013-04-11 13:42:00,54.0,46.0,30.35,NNW,345,9.0,15.0,75,0.00,,,0.01,,2013-04-11 20:42:00,
2013-04-11 13:52:00,52.0,45.0,30.35,NNW,340,9.0,15.0,77,0.00,,,0.01,,2013-04-11 20:52:00,
2013-04-11 14:02:00,53.0,46.0,30.35,WNW,301,8.0,14.0,77,0.00,,,0.01,,2013-04-11 21:02:00,
2013-04-11 14:11:00,53.0,46.0,30.35,WNW,301,8.0,14.0,77,0.00,,,0.01,,2013-04-11 21:11:00,
2013-04-11 14:21:00,53.0,46.0,30.34,NW,324,9.0,14.0,76,0.00,,,0.01,,2013-04-11 21:21:00,
2013-04-11 14:32:00,53.0,46.0,30.34,NW,317,9.0,14.0,76,0.00,,,0.01,,2013-04-11 21:32:00,
2013-04-11 14:42:00,53.0,46.0,30.34,NW,317,9.0,14.0,76,0.00,,,0.01,,2013-04-11 21:42:00,
2013-04-11 14:52:00,53.0,46.0,30.34,NW,320,9.0,13.0,76,0.00,,,0.01,,2013-04-11 21:52:00,
2013-04-11 15:02:00,53.0,46.0,30.35,NNW,333,12.0,18.0,78,0.00,,,0.01,,2013-04-11 22:02:00,
2013-04-11 15:12:00,53.0,46.0,30.35,NNW,333,12.0,18.0,78,0.00,,,0.01,,2013-04-11 22:12:00,
2013-04-11 15:22:00,52.0,45.0,30.34,NNW,334,9.0,15.0,78,0.00,,,0.01,,2013-04-11 22:22:00,
2013-04-11 15:32:00,52.0,46.0,30.33,NNW,327,10.0,14.0,79,0.00,,,0.01,,2013-04-11 22:32:00,
2013-04-11 15:43:00,52.0,46.0,30.33,NNW,327,10.0,14.0,79,0.00,,,0.01,,2013-04-11 22:43:00,
2013-04-11 15:52:00,52.0,46.0,30.33,NNW,337,10.0,14.0,79,0.00,,,0.01,,2013-04-11 22:52:00,
2013-04-11 16:03:00,52.0,45.0,30.32,NNW,347,9.0,14.0,78,0.00,,,0.01,,2013-04-11 23:03:00,
2013-04-11 16:11:00,52.0,45.0,30.32,NNW,347,9.0,14.0,78,0.00,,,0.01,,2013-04-11 23:11:00,
2013-04-11 16:22:00,51.0,44.0,30.31,NW,313,9.0,14.0,78,0.00,,,0.01,,2013-04-11 23:22:00,
2013-04-11 16:32:00,52.0,45.0,30.29,West,281,9.0,14.0,78,0.00,,,0.01,,2013-04-11 23:32:00,
2013-04-11 16:41:00,52.0,45.0,30.29,West,281,9.0,14.0,78,0.00,,,0.01,,2013-04-11 23:41:00,
2013-04-11 16:52:00,51.0,44.0,30.29,NNW,347,11.0,15.0,78,0.00,,,0.01,,2013-04-11 23:52:00,
2013-04-11 17:02:00,50.0,44.0,30.29,NW,326,12.0,18.0,79,0.00,,,0.01,,2013-04-12 00:02:00,
2013-04-11 17:11:00,50.0,44.0,30.29,NW,326,12.0,18.0,79,0.00,,,0.01,,2013-04-12 00:11:00,
2013-04-11 17:21:00,49.0,43.0,30.28,NNW,333,9.0,15.0,80,0.00,,,0.01,,2013-04-12 00:21:00,
2013-04-11 17:32:00,49.0,43.0,30.28,NNW,348,10.0,18.0,79,0.00,,,0.01,,2013-04-12 00:32:00,
2013-04-11 17:42:00,49.0,43.0,30.28,NNW,348,10.0,18.0,79,0.00,,,0.01,,2013-04-12 00:42:00,
2013-04-11 17:52:00,48.0,42.0,30.27,NNW,340,12.0,15.0,79,0.00,,,0.01,,2013-04-12 00:52:00,
2013-04-11 18:02:00,46.0,40.0,30.26,NW,320,13.0,17.0,79,0.00,,,0.01,,2013-04-12 01:02:00,
2013-04-11 18:11:00,46.0,40.0,30.26,NW,320,13.0,17.0,79,0.00,,,0.01,,2013-04-12 01:11:00,
2013-04-11 18:21:00,46.0,40.0,30.26,NW,316,11.0,17.0,79,0.00,,,0.01,,2013-04-12 01:21:00,
2013-04-11 18:32:00,45.0,39.0,30.25,NNW,333,13.0,17.0,80,0.00,,,0.01,,2013-04-12 01:32:00,
2013-04-11 18:52:00,45.0,40.0,30.25,NNW,331,13.0,19.0,81,0.00,,,0.01,,2013-04-12 01:52:00,
2013-04-11 19:01:00,44.0,39.0,30.25,NNW,334,13.0,19.0,81,0.00,,,0.01,,2013-04-12 02:01:00,
2013-04-11 19:21:00,44.0,39.0,30.25,NW,324,11.0,20.0,81,0.00,,,0.01,,2013-04-12 02:21:00,
2013-04-11 19:32:00,43.0,38.0,30.23,NNW,333,10.0,16.0,82,0.00,,,0.01,,2013-04-12 02:32:00,
2013-04-11 19:52:00,43.0,38.0,30.23,North,2,10.0,15.0,82,0.00,,,0.01,,2013-04-12 02:52:00,
2013-04-11 20:02:00,46.0,-99.9,30.23,NNE,12,6.0,10.0,-999,0.00,,,0.01,,2013-04-12 03:02:00,
2013-04-11 20:12:00,46.0,-99.9,30.23,NNE,12,6.0,10.0,-999,0.00,,,0.01,,2013-04-12 03:12:00,
2013-04-11 20:22:00,46.0,-99.9,30.23,North,0,0.0,0.0,-999,0.00,,,0.01,,2013-04-12 03:22:00,
2013-04-11 20:33:00,45.0,-99.9,30.24,NNE,18,2.0,8.0,-999,0.00,,,0.01,,2013-04-12 03:33:00,
2013-04-11 20:43:00,45.0,-99.9,30.24,NNE,18,2.0,8.0,-999,0.00,,,0.01,,2013-04-12 03:43:00,
2013-04-11 20:53:00,44.0,-99.9,30.24,NNE,26,5.0,8.0,-999,0.00,,,0.01,,2013-04-12 03:53:00,
2013-04-11 21:03:00,43.0,-99.9,30.24,SSE,148,2.0,6.0,-999,0.00,,,0.01,,2013-04-12 04:03:00,
2013-04-11 21:13:00,43.0,-99.9,30.24,SSE,148,2.0,6.0,-999,0.00,,,0.01,,2013-04-12 04:13:00,
2013-04-11 21:23:00,43.0,-99.9,30.24,North,0,0.0,6.0,-999,0.00,,,0.01,,2013-04-12 04:23:00,
2013-04-11 21:33:00,42.0,-99.9,30.24,North,0,0.0,6.0,-999,0.00,,,0.01,,2013-04-12 04:33:00,
2013-04-11 21:43:00,42.0,-99.9,30.24,North,0,0.0,6.0,-999,0.00,,,0.01,,2013-04-12 04:43:00,
2013-04-11 21:53:00,42.0,-99.9,30.24,North,0,0.0,6.0,-999,0.00,,,0.01,,2013-04-12 04:53:00,
2013-04-11 22:03:00,41.0,-99.9,30.23,North,0,0.0,0.0,-999,0.00,,,0.01,,2013-04-12 05:03:00,
2013-04-11 22:12:00,41.0,-99.9,30.23,North,0,0.0,0.0,-999,0.00,,,0.01,,2013-04-12 05:12:00,
2013-04-11 22:23:00,41.0,-99.9,30.23,North,0,0.0,0.0,-999,0.00,,,0.01,,2013-04-12 05:23:00,
2013-04-11 22:32:00,40.0,-99.9,30.22,North,0,0.0,0.0,-999,0.00,,,0.01,,2013-04-12 05:32:00,
2013-04-11 22:42:00,40.0,-99.9,30.22,North,0,0.0,0.0,-999,0.00,,,0.01,,2013-04-12 05:42:00,
2013-04-11 22:52:00,40.0,-99.9,30.22,North,0,0.0,0.0,-999,0.00,,,0.01,,2013-04-12 05:52:00,
2013-04-11 23:02:00,40.0,-99.9,30.22,North,0,0.0,3.0,-999,0.00,,,0.01,,2013-04-12 06:02:00,
2013-04-11 23:12:00,40.0,-99.9,30.22,North,0,0.0,3.0,-999,0.00,,,0.01,,2013-04-12 06:12:00,
2013-04-11 23:22:00,40.0,-99.9,30.22,North,0,0.0,0.0,-999,0.00,,,0.01,,2013-04-12 06:22:00,
2013-04-11 23:32:00,40.0,-99.9,30.21,North,0,0.0,0.0,-999,0.00,,,0.01,,2013-04-12 06:32:00,
2013-04-11 23:42:00,40.0,-99.9,30.21,North,0,0.0,0.0,-999,0.00,,,0.01,,2013-04-12 06:42:00,
2013-04-11 23:52:00,39.0,-99.9,30.21,North,0,0.0,0.0,-999,0.00,,,0.01,,2013-04-12 06:52:00,